Terminal Aerodrome Forecast
Issued by NWS

Home | Current Version | Previous Version | Text Only | Print | Product List | Glossary On
Versions: 1 2 3 4 5 6 7 8 9 10 11 12 13 14 15 16
000
FTUS42 KRAH 160540
TAFRWI
TAF
KRWI 160540Z 1606/1706 35012G20KT P6SM BKN025
     FM160830 36010G16KT P6SM SKC
     FM161330 01016G26KT P6SM SKC
     FM161930 04012KT P6SM SKC
      AMD NOT SKED=

USA.gov is the U.S. government's official web portal to all federal, state and local government web resources and services.